sensor_id;sensor_type;location;lat;lon;timestamp;pressure;altitude;pressure_sealevel;temperature;humidity
15646;BME280;7922;43.622;1.476;2024-01-25T00:01:44;102005.28;;;7.20;100.00
15646;BME280;7922;43.622;1.476;2024-01-25T00:04:10;102026.41;;;7.30;100.00
15646;BME280;7922;43.622;1.476;2024-01-25T00:06:35;101964.78;;;6.95;100.00
15646;BME280;7922;43.622;1.476;2024-01-25T00:09:00;102014.06;;;7.21;100.00
15646;BME280;7922;43.622;1.476;2024-01-25T00:11:25;102001.75;;;7.12;100.00
15646;BME280;7922;43.622;1.476;2024-01-25T00:13:51;102001.75;;;7.15;100.00
15646;BME280;7922;43.622;1.476;2024-01-25T00:16:16;102002.66;;;7.22;100.00
15646;BME280;7922;43.622;1.476;2024-01-25T00:18:41;101995.59;;;7.18;100.00
15646;BME280;7922;43.622;1.476;2024-01-25T00:21:07;101970.94;;;7.04;100.00
15646;BME280;7922;43.622;1.476;2024-01-25T00:23:32;101991.19;;;7.11;100.00
15646;BME280;7922;43.622;1.476;2024-01-25T00:25:58;102000.00;;;7.17;100.00
15646;BME280;7922;43.622;1.476;2024-01-25T00:28:23;101985.00;;;7.03;100.00
15646;BME280;7922;43.622;1.476;2024-01-25T00:30:49;101970.94;;;6.97;100.00
15646;BME280;7922;43.622;1.476;2024-01-25T00:33:14;101965.63;;;6.90;100.00
15646;BME280;7922;43.622;1.476;2024-01-25T00:35:39;101984.03;;;6.85;100.00
15646;BME280;7922;43.622;1.476;2024-01-25T00:38:05;101984.88;;;6.77;100.00
15646;BME280;7922;43.622;1.476;2024-01-25T00:40:31;101969.84;;;6.54;100.00
15646;BME280;7922;43.622;1.476;2024-01-25T00:42:56;101990.91;;;6.59;100.00
15646;BME280;7922;43.622;1.476;2024-01-25T00:45:23;101979.38;;;6.41;100.00
15646;BME280;7922;43.622;1.476;2024-01-25T00:47:49;101968.00;;;6.45;100.00
15646;BME280;7922;43.622;1.476;2024-01-25T00:50:16;101963.66;;;6.50;100.00
15646;BME280;7922;43.622;1.476;2024-01-25T00:52:41;101956.63;;;6.49;100.00
15646;BME280;7922;43.622;1.476;2024-01-25T00:55:07;101910.03;;;6.29;100.00
15646;BME280;7922;43.622;1.476;2024-01-25T00:57:33;101965.47;;;6.61;100.00
15646;BME280;7922;43.622;1.476;2024-01-25T00:59:59;101993.66;;;6.75;100.00
15646;BME280;7922;43.622;1.476;2024-01-25T01:02:24;101931.97;;;6.32;100.00
15646;BME280;7922;43.622;1.476;2024-01-25T01:04:51;101981.28;;;6.64;100.00
15646;BME280;7922;43.622;1.476;2024-01-25T01:07:16;101963.69;;;6.57;100.00
15646;BME280;7922;43.622;1.476;2024-01-25T01:09:42;101989.28;;;6.76;100.00
15646;BME280;7922;43.622;1.476;2024-01-25T01:12:07;101981.34;;;6.70;100.00
15646;BME280;7922;43.622;1.476;2024-01-25T01:14:32;101976.06;;;6.71;100.00
15646;BME280;7922;43.622;1.476;2024-01-25T01:16:58;101981.34;;;6.73;100.00
15646;BME280;7922;43.622;1.476;2024-01-25T01:19:23;101998.94;;;6.82;100.00
15646;BME280;7922;43.622;1.476;2024-01-25T01:21:48;101974.31;;;6.70;100.00
15646;BME280;7922;43.622;1.476;2024-01-25T01:24:16;101986.66;;;6.82;100.00
15646;BME280;7922;43.622;1.476;2024-01-25T01:26:41;101968.16;;;6.71;100.00
15646;BME280;7922;43.622;1.476;2024-01-25T01:29:06;101954.97;;;6.62;100.00
15646;BME280;7922;43.622;1.476;2024-01-25T01:31:32;101977.84;;;6.79;100.00
15646;BME280;7922;43.622;1.476;2024-01-25T01:33:57;101958.47;;;6.64;100.00
15646;BME280;7922;43.622;1.476;2024-01-25T01:36:22;101918.00;;;6.45;100.00
15646;BME280;7922;43.622;1.476;2024-01-25T01:38:48;101973.47;;;6.76;100.00
15646;BME280;7922;43.622;1.476;2024-01-25T01:41:13;101943.47;;;6.49;100.00
15646;BME280;7922;43.622;1.476;2024-01-25T01:43:38;101956.63;;;6.49;100.00
15646;BME280;7922;43.622;1.476;2024-01-25T01:46:09;101972.50;;;6.62;100.00
15646;BME280;7922;43.622;1.476;2024-01-25T01:48:35;101985.63;;;6.57;100.00
15646;BME280;7922;43.622;1.476;2024-01-25T01:51:01;101953.09;;;6.44;100.00
15646;BME280;7922;43.622;1.476;2024-01-25T01:53:26;101975.97;;;6.51;100.00
15646;BME280;7922;43.622;1.476;2024-01-25T01:55:52;101987.47;;;6.66;100.00
15646;BME280;7922;43.622;1.476;2024-01-25T01:58:20;101968.97;;;6.60;100.00
15646;BME280;7922;43.622;1.476;2024-01-25T02:00:49;101932.88;;;6.36;100.00
15646;BME280;7922;43.622;1.476;2024-01-25T02:03:15;101974.31;;;6.70;100.00
15646;BME280;7922;43.622;1.476;2024-01-25T02:05:41;101953.19;;;6.60;100.00
15646;BME280;7922;43.622;1.476;2024-01-25T02:08:07;101973.50;;;6.84;100.00
15646;BME280;7922;43.622;1.476;2024-01-25T02:10:33;101975.31;;;6.94;100.00
15646;BME280;7922;43.622;1.476;2024-01-25T02:12:58;101959.50;;;6.94;100.00
15646;BME280;7922;43.622;1.476;2024-01-25T02:15:25;101968.28;;;7.00;100.00
15646;BME280;7922;43.622;1.476;2024-01-25T02:17:51;101936.63;;;6.90;100.00
15646;BME280;7922;43.622;1.476;2024-01-25T02:20:18;101953.38;;;7.04;100.00
15646;BME280;7922;43.622;1.476;2024-01-25T02:22:43;101889.19;;;6.73;100.00
15646;BME280;7922;43.622;1.476;2024-01-25T02:25:09;101912.06;;;6.97;100.00
15646;BME280;7922;43.622;1.476;2024-01-25T02:27:34;101899.81;;;6.97;100.00
15646;BME280;7922;43.622;1.476;2024-01-25T02:29:59;101942.03;;;7.20;100.00
15646;BME280;7922;43.622;1.476;2024-01-25T02:32:24;101953.47;;;7.33;100.00
15646;BME280;7922;43.622;1.476;2024-01-25T02:34:50;101926.19;;;7.17;100.00
15646;BME280;7922;43.622;1.476;2024-01-25T02:37:15;101884.88;;;6.98;100.00
15646;BME280;7922;43.622;1.476;2024-01-25T02:39:40;101872.56;;;6.95;100.00
15646;BME280;7922;43.622;1.476;2024-01-25T02:42:06;101939.44;;;7.34;100.00
15646;BME280;7922;43.622;1.476;2024-01-25T02:44:31;101932.41;;;7.30;100.00
15646;BME280;7922;43.622;1.476;2024-01-25T02:46:56;101940.31;;;7.36;100.00
15646;BME280;7922;43.622;1.476;2024-01-25T02:49:21;101944.69;;;7.40;100.00
15646;BME280;7922;43.622;1.476;2024-01-25T02:51:47;101919.22;;;7.27;100.00
15646;BME280;7922;43.622;1.476;2024-01-25T02:54:12;101868.19;;;6.94;100.00
15646;BME280;7922;43.622;1.476;2024-01-25T02:56:37;101913.03;;;7.20;100.00
15646;BME280;7922;43.622;1.476;2024-01-25T02:59:02;101905.13;;;7.22;100.00
15646;BME280;7922;43.622;1.476;2024-01-25T03:01:28;101913.94;;;7.30;100.00
15646;BME280;7922;43.622;1.476;2024-01-25T03:03:53;101910.44;;;7.27;100.00
15646;BME280;7922;43.622;1.476;2024-01-25T03:06:19;101905.13;;;7.20;100.00
15646;BME280;7922;43.622;1.476;2024-01-25T03:08:44;101858.53;;;7.04;100.00
15646;BME280;7922;43.622;1.476;2024-01-25T03:11:10;101891.97;;;7.25;100.00
15646;BME280;7922;43.622;1.476;2024-01-25T03:13:35;101869.97;;;7.18;100.00
15646;BME280;7922;43.622;1.476;2024-01-25T03:16:00;101856.78;;;7.14;100.00
15646;BME280;7922;43.622;1.476;2024-01-25T03:18:26;101910.44;;;7.36;100.00
15646;BME280;7922;43.622;1.476;2024-01-25T03:20:51;101845.34;;;7.04;100.00
15646;BME280;7922;43.622;1.476;2024-01-25T03:23:16;101842.72;;;7.07;100.00
15646;BME280;7922;43.622;1.476;2024-01-25T03:25:42;101876.16;;;7.36;100.00
15646;BME280;7922;43.622;1.476;2024-01-25T03:28:07;101883.22;;;7.41;100.00
15646;BME280;7922;43.622;1.476;2024-01-25T03:30:32;101880.56;;;7.46;100.00
15646;BME280;7922;43.622;1.476;2024-01-25T03:32:58;101832.22;;;7.21;100.00
15646;BME280;7922;43.622;1.476;2024-01-25T03:35:23;101822.53;;;7.21;100.00
15646;BME280;7922;43.622;1.476;2024-01-25T03:37:48;101885.84;;;7.54;100.00
15646;BME280;7922;43.622;1.476;2024-01-25T03:40:13;101871.78;;;7.53;100.00
15646;BME280;7922;43.622;1.476;2024-01-25T03:42:39;101804.13;;;7.23;100.00
15646;BME280;7922;43.622;1.476;2024-01-25T03:45:04;101858.59;;;7.64;100.00
15646;BME280;7922;43.622;1.476;2024-01-25T03:47:30;101863.00;;;7.57;100.00
15646;BME280;7922;43.622;1.476;2024-01-25T03:49:55;101867.38;;;7.64;100.00
15646;BME280;7922;43.622;1.476;2024-01-25T03:52:20;101854.22;;;7.63;100.00
15646;BME280;7922;43.622;1.476;2024-01-25T03:54:45;101869.16;;;7.71;100.00
15646;BME280;7922;43.622;1.476;2024-01-25T03:57:11;101864.78;;;7.74;100.00
15646;BME280;7922;43.622;1.476;2024-01-25T03:59:36;101856.84;;;7.69;100.00
15646;BME280;7922;43.622;1.476;2024-01-25T04:02:01;101844.53;;;7.71;100.00
15646;BME280;7922;43.622;1.476;2024-01-25T04:04:27;101863.00;;;7.74;100.00
15646;BME280;7922;43.622;1.476;2024-01-25T04:06:52;101858.59;;;7.76;100.00
15646;BME280;7922;43.622;1.476;2024-01-25T04:09:17;101785.63;;;7.37;100.00
15646;BME280;7922;43.622;1.476;2024-01-25T04:11:45;101853.31;;;7.71;100.00
15646;BME280;7922;43.622;1.476;2024-01-25T04:14:10;101793.56;;;7.40;100.00
15646;BME280;7922;43.622;1.476;2024-01-25T04:16:35;101836.59;;;7.69;100.00
15646;BME280;7922;43.622;1.476;2024-01-25T04:19:01;101826.06;;;7.74;100.00
15646;BME280;7922;43.622;1.476;2024-01-25T04:21:29;101860.34;;;7.89;100.00
15646;BME280;7922;43.622;1.476;2024-01-25T04:23:54;101830.44;;;7.77;100.00
15646;BME280;7922;43.622;1.476;2024-01-25T04:26:19;101788.28;;;7.57;100.00
15646;BME280;7922;43.622;1.476;2024-01-25T04:28:45;101835.75;;;7.78;100.00
15646;BME280;7922;43.622;1.476;2024-01-25T04:31:10;101824.28;;;7.79;100.00
15646;BME280;7922;43.622;1.476;2024-01-25T04:33:35;101842.72;;;7.94;100.00
15646;BME280;7922;43.622;1.476;2024-01-25T04:36:03;101841.84;;;7.97;100.00
15646;BME280;7922;43.622;1.476;2024-01-25T04:38:28;101840.13;;;7.96;100.00
15646;BME280;7922;43.622;1.476;2024-01-25T04:40:53;101852.41;;;7.99;100.00
15646;BME280;7922;43.622;1.476;2024-01-25T04:43:21;101794.41;;;7.71;100.00
15646;BME280;7922;43.622;1.476;2024-01-25T04:45:48;101827.78;;;7.90;100.00
15646;BME280;7922;43.622;1.476;2024-01-25T04:48:13;101848.88;;;8.09;100.00
15646;BME280;7922;43.622;1.476;2024-01-25T04:50:39;101833.09;;;7.86;100.00
15646;BME280;7922;43.622;1.476;2024-01-25T04:53:04;101847.13;;;8.05;100.00
15646;BME280;7922;43.622;1.476;2024-01-25T04:55:29;101843.59;;;8.04;100.00
15646;BME280;7922;43.622;1.476;2024-01-25T04:57:55;101833.03;;;8.01;100.00
15646;BME280;7922;43.622;1.476;2024-01-25T05:00:21;101817.25;;;7.96;100.00
15646;BME280;7922;43.622;1.476;2024-01-25T05:02:47;101777.69;;;7.80;100.00
15646;BME280;7922;43.622;1.476;2024-01-25T05:05:13;101822.47;;;8.10;100.00
15646;BME280;7922;43.622;1.476;2024-01-25T05:07:38;101832.13;;;8.16;100.00
15646;BME280;7922;43.622;1.476;2024-01-25T05:10:04;101822.44;;;8.16;100.00
15646;BME280;7922;43.622;1.476;2024-01-25T05:12:29;101825.09;;;8.16;100.00
15646;BME280;7922;43.622;1.476;2024-01-25T05:14:54;101773.25;;;7.94;100.00
15646;BME280;7922;43.622;1.476;2024-01-25T05:17:20;101814.56;;;8.12;100.00
15646;BME280;7922;43.622;1.476;2024-01-25T05:19:45;101779.41;;;7.96;100.00
15646;BME280;7922;43.622;1.476;2024-01-25T05:22:10;101827.75;;;8.21;100.00
15646;BME280;7922;43.622;1.476;2024-01-25T05:24:36;101751.28;;;7.89;100.00
15646;BME280;7922;43.622;1.476;2024-01-25T05:27:01;101804.84;;;8.22;100.00
15646;BME280;7922;43.622;1.476;2024-01-25T05:29:26;101795.19;;;8.13;100.00
15646;BME280;7922;43.622;1.476;2024-01-25T05:31:52;101796.94;;;8.15;100.00
15646;BME280;7922;43.622;1.476;2024-01-25T05:34:17;101816.25;;;8.30;100.00
15646;BME280;7922;43.622;1.476;2024-01-25T05:36:42;101832.97;;;8.47;100.00
15646;BME280;7922;43.622;1.476;2024-01-25T05:39:08;101789.88;;;8.28;100.00
15646;BME280;7922;43.622;1.476;2024-01-25T05:41:33;101760.88;;;8.13;100.00
15646;BME280;7922;43.622;1.476;2024-01-25T05:43:59;101825.03;;;8.44;100.00
15646;BME280;7922;43.622;1.476;2024-01-25T05:46:28;101814.50;;;8.38;100.00
15646;BME280;7922;43.622;1.476;2024-01-25T05:48:53;101819.75;;;8.41;100.00
15646;BME280;7922;43.622;1.476;2024-01-25T05:51:18;101832.94;;;8.52;100.00
15646;BME280;7922;43.622;1.476;2024-01-25T05:53:44;101817.09;;;8.35;100.00
15646;BME280;7922;43.622;1.476;2024-01-25T05:56:09;101778.44;;;8.20;100.00
15646;BME280;7922;43.622;1.476;2024-01-25T05:58:34;101820.59;;;8.49;100.00
15646;BME280;7922;43.622;1.476;2024-01-25T06:01:00;101810.06;;;8.44;100.00
15646;BME280;7922;43.622;1.476;2024-01-25T06:03:25;101775.78;;;8.29;100.00
15646;BME280;7922;43.622;1.476;2024-01-25T06:05:51;101806.53;;;8.49;100.00
15646;BME280;7922;43.622;1.476;2024-01-25T06:08:16;101768.72;;;8.31;100.00
15646;BME280;7922;43.622;1.476;2024-01-25T06:10:41;101814.41;;;8.61;100.00
15646;BME280;7922;43.622;1.476;2024-01-25T06:13:07;101816.16;;;8.59;100.00
15646;BME280;7922;43.622;1.476;2024-01-25T06:15:32;101770.47;;;8.35;100.00
15646;BME280;7922;43.622;1.476;2024-01-25T06:17:57;101782.81;;;8.42;100.00
15646;BME280;7922;43.622;1.476;2024-01-25T06:20:23;101830.22;;;8.67;100.00
15646;BME280;7922;43.622;1.476;2024-01-25T06:22:51;101804.72;;;8.61;100.00
15646;BME280;7922;43.622;1.476;2024-01-25T06:25:16;101829.31;;;8.71;100.00
15646;BME280;7922;43.622;1.476;2024-01-25T06:27:41;101819.63;;;8.70;100.00
15646;BME280;7922;43.622;1.476;2024-01-25T06:30:07;101771.34;;;8.31;100.00
15646;BME280;7922;43.622;1.476;2024-01-25T06:32:32;101817.91;;;8.57;100.00
15646;BME280;7922;43.622;1.476;2024-01-25T06:34:57;101817.03;;;8.62;100.00
15646;BME280;7922;43.622;1.476;2024-01-25T06:37:23;101806.47;;;8.56;100.00
15646;BME280;7922;43.622;1.476;2024-01-25T06:39:48;101814.44;;;8.55;100.00
15646;BME280;7922;43.622;1.476;2024-01-25T06:42:13;101817.13;;;8.44;100.00
15646;BME280;7922;43.622;1.476;2024-01-25T06:44:39;101822.41;;;8.41;100.00
15646;BME280;7922;43.622;1.476;2024-01-25T06:47:04;101832.06;;;8.48;100.00
15646;BME280;7922;43.622;1.476;2024-01-25T06:49:30;101778.44;;;8.22;100.00
15646;BME280;7922;43.622;1.476;2024-01-25T06:51:55;101819.75;;;8.44;100.00
15646;BME280;7922;43.622;1.476;2024-01-25T06:54:20;101797.78;;;8.37;100.00
15646;BME280;7922;43.622;1.476;2024-01-25T06:56:45;101832.00;;;8.62;100.00
15646;BME280;7922;43.622;1.476;2024-01-25T06:59:11;101759.06;;;8.27;100.00
15646;BME280;7922;43.622;1.476;2024-01-25T07:01:36;101804.75;;;8.55;100.00
15646;BME280;7922;43.622;1.476;2024-01-25T07:04:01;101813.53;;;8.53;100.00
15646;BME280;7922;43.622;1.476;2024-01-25T07:06:27;101807.41;;;8.51;100.00
15646;BME280;7922;43.622;1.476;2024-01-25T07:08:52;101758.22;;;8.22;100.00
15646;BME280;7922;43.622;1.476;2024-01-25T07:11:17;101759.06;;;8.27;100.00
15646;BME280;7922;43.622;1.476;2024-01-25T07:13:42;101809.13;;;8.58;100.00
15646;BME280;7922;43.622;1.476;2024-01-25T07:16:08;101818.78;;;8.60;100.00
15646;BME280;7922;43.622;1.476;2024-01-25T07:18:33;101758.22;;;8.19;100.00
15646;BME280;7922;43.622;1.476;2024-01-25T07:20:58;101785.47;;;8.24;100.00
15646;BME280;7922;43.622;1.476;2024-01-25T07:23:23;101841.78;;;8.43;100.00
15646;BME280;7922;43.622;1.476;2024-01-25T07:25:49;101820.66;;;8.38;100.00
15646;BME280;7922;43.622;1.476;2024-01-25T07:28:14;101840.88;;;8.44;100.00
15646;BME280;7922;43.622;1.476;2024-01-25T07:30:39;101833.88;;;8.26;100.00
15646;BME280;7922;43.622;1.476;2024-01-25T07:33:05;101818.09;;;8.11;100.00
15646;BME280;7922;43.622;1.476;2024-01-25T07:35:30;101820.75;;;7.92;100.00
15646;BME280;7922;43.622;1.476;2024-01-25T07:37:55;101814.63;;;7.77;100.00
15646;BME280;7922;43.622;1.476;2024-01-25T07:40:20;101760.16;;;7.56;100.00
15646;BME280;7922;43.622;1.476;2024-01-25T07:42:46;101772.44;;;7.69;100.00
15646;BME280;7922;43.622;1.476;2024-01-25T07:45:11;101811.91;;;8.06;100.00
15646;BME280;7922;43.622;1.476;2024-01-25T07:47:37;101819.84;;;8.09;100.00
15646;BME280;7922;43.622;1.476;2024-01-25T07:50:02;101815.44;;;8.08;100.00
15646;BME280;7922;43.622;1.476;2024-01-25T07:52:27;101820.69;;;8.18;100.00
15646;BME280;7922;43.622;1.476;2024-01-25T07:54:53;101775.94;;;7.82;100.00
15646;BME280;7922;43.622;1.476;2024-01-25T07:57:18;101811.09;;;7.99;100.00
15646;BME280;7922;43.622;1.476;2024-01-25T07:59:44;101797.00;;;7.91;100.00
15646;BME280;7922;43.622;1.476;2024-01-25T08:02:09;101830.41;;;8.10;100.00
15646;BME280;7922;43.622;1.476;2024-01-25T08:04:34;101823.38;;;8.05;100.00
15646;BME280;7922;43.622;1.476;2024-01-25T08:06:59;101826.03;;;8.00;100.00
15646;BME280;7922;43.622;1.476;2024-01-25T08:09:25;101836.59;;;7.83;100.00
15646;BME280;7922;43.622;1.476;2024-01-25T08:11:50;101834.00;;;7.77;100.00
15646;BME280;7922;43.622;1.476;2024-01-25T08:14:15;101772.47;;;7.49;100.00
15646;BME280;7922;43.622;1.476;2024-01-25T08:16:41;101821.63;;;7.93;100.00
15646;BME280;7922;43.622;1.476;2024-01-25T08:19:06;101781.22;;;7.72;100.00
15646;BME280;7922;43.622;1.476;2024-01-25T08:21:32;101779.47;;;7.71;100.00
15646;BME280;7922;43.622;1.476;2024-01-25T08:23:57;101811.94;;;8.03;100.00
15646;BME280;7922;43.622;1.476;2024-01-25T08:26:22;101771.50;;;7.91;100.00
15646;BME280;7922;43.622;1.476;2024-01-25T08:28:47;101785.50;;;8.12;100.00
15646;BME280;7922;43.622;1.476;2024-01-25T08:31:13;101770.56;;;8.11;100.00
15646;BME280;7922;43.622;1.476;2024-01-25T08:33:39;101772.25;;;8.24;100.00
15646;BME280;7922;43.622;1.476;2024-01-25T08:36:05;101825.00;;;8.49;100.00
15646;BME280;7922;43.622;1.476;2024-01-25T08:38:30;101822.34;;;8.52;100.00
15646;BME280;7922;43.622;1.476;2024-01-25T08:40:55;101843.38;;;8.76;100.00
15646;BME280;7922;43.622;1.476;2024-01-25T08:43:21;101779.28;;;8.43;100.00
15646;BME280;7922;43.622;1.476;2024-01-25T08:45:46;101850.34;;;8.97;100.00
15646;BME280;7922;43.622;1.476;2024-01-25T08:48:11;101821.31;;;8.85;100.00
15646;BME280;7922;43.622;1.476;2024-01-25T08:50:36;101833.63;;;8.94;100.00
15646;BME280;7922;43.622;1.476;2024-01-25T08:53:02;101830.91;;;9.04;100.00
15646;BME280;7922;43.622;1.476;2024-01-25T08:55:31;101833.56;;;8.98;100.00
15646;BME280;7922;43.622;1.476;2024-01-25T08:57:59;101792.31;;;8.71;100.00
15646;BME280;7922;43.622;1.476;2024-01-25T09:00:24;101831.06;;;8.75;100.00
15646;BME280;7922;43.622;1.476;2024-01-25T09:02:49;101778.28;;;8.60;100.00
15646;BME280;7922;43.622;1.476;2024-01-25T09:05:15;101849.47;;;8.86;100.00
15646;BME280;7922;43.622;1.476;2024-01-25T09:07:40;101854.63;;;9.10;100.00
15646;BME280;7922;43.622;1.476;2024-01-25T09:10:06;101842.34;;;9.05;100.00
15646;BME280;7922;43.622;1.476;2024-01-25T09:12:32;101849.44;;;8.98;100.00
15646;BME280;7922;43.622;1.476;2024-01-25T09:14:57;101832.78;;;8.81;100.00
15646;BME280;7922;43.622;1.476;2024-01-25T09:17:22;101856.50;;;8.91;100.00
15646;BME280;7922;43.622;1.476;2024-01-25T09:19:48;101792.41;;;8.57;100.00
15646;BME280;7922;43.622;1.476;2024-01-25T09:22:14;101816.09;;;8.74;100.00
15646;BME280;7922;43.622;1.476;2024-01-25T09:24:39;101837.13;;;8.94;100.00
15646;BME280;7922;43.622;1.476;2024-01-25T09:27:04;101852.16;;;8.84;100.00
15646;BME280;7922;43.622;1.476;2024-01-25T09:29:29;101858.19;;;9.06;100.00
15646;BME280;7922;43.622;1.476;2024-01-25T09:31:55;101802.69;;;9.03;100.00
15646;BME280;7922;43.622;1.476;2024-01-25T09:34:20;101848.28;;;9.39;100.00
15646;BME280;7922;43.622;1.476;2024-01-25T09:36:45;101850.78;;;9.54;100.00
15646;BME280;7922;43.622;1.476;2024-01-25T09:39:10;101871.03;;;9.63;100.00
15646;BME280;7922;43.622;1.476;2024-01-25T09:41:36;101848.94;;;9.65;100.00
15646;BME280;7922;43.622;1.476;2024-01-25T09:44:01;101837.56;;;9.56;100.00
15646;BME280;7922;43.622;1.476;2024-01-25T09:46:27;101840.88;;;9.79;100.00
15646;BME280;7922;43.622;1.476;2024-01-25T09:48:52;101840.81;;;9.85;100.00
15646;BME280;7922;43.622;1.476;2024-01-25T09:51:22;101868.00;;;10.04;100.00
15646;BME280;7922;43.622;1.476;2024-01-25T09:53:49;101852.13;;;10.01;100.00
15646;BME280;7922;43.622;1.476;2024-01-25T09:56:15;101849.78;;;9.69;100.00
15646;BME280;7922;43.622;1.476;2024-01-25T09:58:43;101851.53;;;9.73;100.00
15646;BME280;7922;43.622;1.476;2024-01-25T10:01:12;101775.25;;;9.21;100.00
15646;BME280;7922;43.622;1.476;2024-01-25T10:03:47;101840.09;;;9.70;100.00
15646;BME280;7922;43.622;1.476;2024-01-25T10:06:13;101759.19;;;9.44;100.00
15646;BME280;7922;43.622;1.476;2024-01-25T10:08:39;101834.63;;;9.88;100.00
15646;BME280;7922;43.622;1.476;2024-01-25T10:11:05;101849.56;;;9.94;100.00
15646;BME280;7922;43.622;1.476;2024-01-25T10:13:30;101837.28;;;9.86;100.00
15646;BME280;7922;43.622;1.476;2024-01-25T10:15:56;101821.41;;;9.86;100.00
15646;BME280;7922;43.622;1.476;2024-01-25T10:18:27;101788.81;;;9.80;100.00
15646;BME280;7922;43.622;1.476;2024-01-25T10:20:55;101786.13;;;9.83;100.00
15646;BME280;7922;43.622;1.476;2024-01-25T10:23:21;101844.66;;;10.42;100.00
15646;BME280;7922;43.622;1.476;2024-01-25T10:25:49;101831.44;;;10.40;99.06
15646;BME280;7922;43.622;1.476;2024-01-25T10:28:14;101822.75;;;10.29;97.54
15646;BME280;7922;43.622;1.476;2024-01-25T10:30:39;101823.56;;;10.34;98.12
15646;BME280;7922;43.622;1.476;2024-01-25T10:33:06;101847.94;;;10.62;98.00
15646;BME280;7922;43.622;1.476;2024-01-25T10:35:31;101828.59;;;10.55;98.29
15646;BME280;7922;43.622;1.476;2024-01-25T10:37:57;101827.75;;;10.53;97.85
15646;BME280;7922;43.622;1.476;2024-01-25T10:40:22;101780.66;;;10.01;98.39
15646;BME280;7922;43.622;1.476;2024-01-25T10:42:48;101798.03;;;10.28;98.94
15646;BME280;7922;43.622;1.476;2024-01-25T10:45:14;101843.31;;;10.79;98.79
15646;BME280;7922;43.622;1.476;2024-01-25T10:47:40;101819.38;;;10.84;98.67
15646;BME280;7922;43.622;1.476;2024-01-25T10:50:05;101827.78;;;11.15;97.42
15646;BME280;7922;43.622;1.476;2024-01-25T10:52:31;101759.06;;;10.98;95.80
15646;BME280;7922;43.622;1.476;2024-01-25T10:54:57;101811.25;;;11.52;93.45
15646;BME280;7922;43.622;1.476;2024-01-25T10:57:23;101816.50;;;11.56;92.89
15646;BME280;7922;43.622;1.476;2024-01-25T10:59:49;101764.34;;;11.01;92.71
15646;BME280;7922;43.622;1.476;2024-01-25T11:02:14;101781.56;;;11.30;93.63
15646;BME280;7922;43.622;1.476;2024-01-25T11:04:53;101791.63;;;11.62;91.38
15646;BME280;7922;43.622;1.476;2024-01-25T11:07:18;101780.16;;;11.60;92.24
15646;BME280;7922;43.622;1.476;2024-01-25T11:09:45;101751.81;;;11.61;90.85
15646;BME280;7922;43.622;1.476;2024-01-25T11:12:13;101790.38;;;11.81;91.96
15646;BME280;7922;43.622;1.476;2024-01-25T11:14:38;101754.53;;;11.59;91.15
15646;BME280;7922;43.622;1.476;2024-01-25T11:17:20;101773.81;;;11.67;91.65
15646;BME280;7922;43.622;1.476;2024-01-25T11:19:45;101771.06;;;11.73;91.07
15646;BME280;7922;43.622;1.476;2024-01-25T11:22:11;101764.44;;;11.97;90.69
15646;BME280;7922;43.622;1.476;2024-01-25T11:24:38;101747.63;;;11.97;90.21
15646;BME280;7922;43.622;1.476;2024-01-25T11:27:04;101754.66;;;11.99;90.96
15646;BME280;7922;43.622;1.476;2024-01-25T11:29:30;101743.34;;;11.90;91.23
15646;BME280;7922;43.622;1.476;2024-01-25T11:31:55;101752.28;;;11.82;90.97
15646;BME280;7922;43.622;1.476;2024-01-25T11:34:22;101747.75;;;11.41;92.50
15646;BME280;7922;43.622;1.476;2024-01-25T11:36:47;101748.72;;;11.36;93.71
15646;BME280;7922;43.622;1.476;2024-01-25T11:39:14;101732.84;;;11.32;94.67
15646;BME280;7922;43.622;1.476;2024-01-25T11:41:41;101737.78;;;11.55;93.76
15646;BME280;7922;43.622;1.476;2024-01-25T11:44:09;101733.13;;;11.67;92.62
15646;BME280;7922;43.622;1.476;2024-01-25T11:46:35;101699.00;;;11.47;91.32
15646;BME280;7922;43.622;1.476;2024-01-25T11:49:00;101708.19;;;11.75;90.97
15646;BME280;7922;43.622;1.476;2024-01-25T11:51:26;101670.56;;;11.53;90.12
15646;BME280;7922;43.622;1.476;2024-01-25T11:53:51;101638.97;;;11.41;90.89
15646;BME280;7922;43.622;1.476;2024-01-25T11:56:20;101692.16;;;11.80;89.75
15646;BME280;7922;43.622;1.476;2024-01-25T11:58:46;101689.31;;;11.91;87.98
15646;BME280;7922;43.622;1.476;2024-01-25T12:01:13;101661.06;;;11.88;87.02
15646;BME280;7922;43.622;1.476;2024-01-25T12:03:40;101691.78;;;12.00;88.53
15646;BME280;7922;43.622;1.476;2024-01-25T12:06:06;101640.69;;;11.89;88.57
15646;BME280;7922;43.622;1.476;2024-01-25T12:08:35;101684.00;;;12.33;87.58
15646;BME280;7922;43.622;1.476;2024-01-25T12:11:10;101682.31;;;12.28;87.09
15646;BME280;7922;43.622;1.476;2024-01-25T12:13:36;101683.75;;;12.43;87.84
15646;BME280;7922;43.622;1.476;2024-01-25T12:16:03;101671.47;;;12.39;87.79
15646;BME280;7922;43.622;1.476;2024-01-25T12:18:29;101664.22;;;12.46;87.65
15646;BME280;7922;43.622;1.476;2024-01-25T12:21:00;101638.53;;;12.45;86.85
15646;BME280;7922;43.622;1.476;2024-01-25T12:23:34;101658.56;;;12.60;85.44
15646;BME280;7922;43.622;1.476;2024-01-25T12:26:01;101660.13;;;12.68;85.60
15646;BME280;7922;43.622;1.476;2024-01-25T12:28:27;101612.75;;;12.48;86.04
15646;BME280;7922;43.622;1.476;2024-01-25T12:30:52;101603.59;;;12.24;87.19
15646;BME280;7922;43.622;1.476;2024-01-25T12:33:18;101638.22;;;12.59;86.02
15646;BME280;7922;43.622;1.476;2024-01-25T12:35:43;101639.44;;;12.81;85.71
15646;BME280;7922;43.622;1.476;2024-01-25T12:38:08;101634.03;;;12.84;85.47
15646;BME280;7922;43.622;1.476;2024-01-25T12:40:34;101637.53;;;12.86;84.67
15646;BME280;7922;43.622;1.476;2024-01-25T12:43:00;101636.28;;;13.01;84.92
15646;BME280;7922;43.622;1.476;2024-01-25T12:45:25;101574.28;;;12.63;83.80
15646;BME280;7922;43.622;1.476;2024-01-25T12:47:50;101610.69;;;12.95;83.48
15646;BME280;7922;43.622;1.476;2024-01-25T12:50:16;101630.81;;;13.07;82.87
15646;BME280;7922;43.622;1.476;2024-01-25T12:52:41;101604.28;;;13.02;82.88